createdAt,value
2022-12-18T00:00:54.516Z,102728.47
2022-12-18T00:02:56.928Z,102715.50
2022-12-18T00:04:58.598Z,102722.84
2022-12-18T00:07:01.544Z,102721.63
2022-12-18T00:09:04.328Z,102726.69
2022-12-18T00:11:07.018Z,102730.75
2022-12-18T00:13:10.173Z,102732.31
2022-12-18T00:15:12.071Z,102728.91
2022-12-18T00:17:13.670Z,102741.16
2022-12-18T00:19:15.913Z,102730.44
2022-12-18T00:21:17.851Z,102732.66
2022-12-18T00:23:20.742Z,102740.63
2022-12-18T00:25:22.379Z,102730.69
2022-12-18T00:27:23.927Z,102734.34
2022-12-18T00:29:25.558Z,102710.06
2022-12-18T00:31:27.272Z,102728.66
2022-12-18T00:33:29.207Z,102731.13
2022-12-18T00:35:30.717Z,102728.41
2022-12-18T00:37:33.885Z,102714.34
2022-12-18T00:39:36.969Z,102718.44
2022-12-18T00:41:38.704Z,102711.41
2022-12-18T00:43:41.139Z,102723.91
2022-12-18T00:45:42.842Z,102717.38
2022-12-18T00:47:44.475Z,102726.00
2022-12-18T00:49:46.016Z,102717.88
2022-12-18T00:51:48.228Z,102725.66
2022-12-18T00:53:49.884Z,102713.81
2022-12-18T00:55:52.842Z,102716.09
2022-12-18T00:57:54.446Z,102712.03
2022-12-18T00:59:56.076Z,102714.75
2022-12-18T01:01:57.745Z,102724.13
2022-12-18T01:04:00.810Z,102717.28
2022-12-18T01:06:07.333Z,102727.56
2022-12-18T01:08:08.996Z,102707.03
2022-12-18T01:10:12.315Z,102726.84
2022-12-18T01:12:15.409Z,102727.94
2022-12-18T01:14:17.014Z,102728.91
2022-12-18T01:16:18.932Z,102724.31
2022-12-18T01:18:20.514Z,102726.94
2022-12-18T01:20:22.059Z,102736.78
2022-12-18T01:22:23.767Z,102743.31
2022-12-18T01:24:25.403Z,102737.34
2022-12-18T01:26:27.823Z,102744.41
2022-12-18T01:28:30.764Z,102751.16
2022-12-18T01:30:32.312Z,102752.06
2022-12-18T01:32:34.073Z,102745.28
2022-12-18T01:34:36.329Z,102748.09
2022-12-18T01:36:39.479Z,102747.97
2022-12-18T01:38:44.074Z,102748.44
2022-12-18T01:40:45.602Z,102752.03
2022-12-18T01:42:53.753Z,102743.44
2022-12-18T01:44:58.639Z,102758.19
2022-12-18T01:47:00.535Z,102758.78
2022-12-18T01:49:02.562Z,102765.00
2022-12-18T01:51:05.626Z,102763.03
2022-12-18T01:53:13.729Z,102746.03
2022-12-18T01:55:19.299Z,102765.56
2022-12-18T01:57:21.168Z,102740.28
2022-12-18T01:59:22.691Z,102759.16
2022-12-18T02:01:26.942Z,102747.47
2022-12-18T02:03:28.599Z,102760.00
2022-12-18T02:05:41.084Z,102753.00
2022-12-18T02:07:52.000Z,102758.75
2022-12-18T02:09:59.962Z,102764.09
2022-12-18T02:12:06.709Z,102756.66
2022-12-18T02:14:19.031Z,102759.78
2022-12-18T02:16:31.139Z,102762.03
2022-12-18T02:18:38.155Z,102765.66
2022-12-18T02:20:46.094Z,102770.88
2022-12-18T02:23:05.420Z,102777.25
2022-12-18T02:25:19.647Z,102777.25
2022-12-18T02:27:22.768Z,102776.13
2022-12-18T02:29:27.000Z,102772.88
2022-12-18T02:31:32.316Z,102769.25
2022-12-18T02:33:36.567Z,102774.69
2022-12-18T02:35:41.017Z,102777.25
2022-12-18T02:37:44.839Z,102777.34
2022-12-18T02:39:49.643Z,102782.13
2022-12-18T02:41:51.695Z,102792.41
2022-12-18T02:43:57.407Z,102799.50
2022-12-18T02:46:00.664Z,102791.94
2022-12-18T02:48:02.348Z,102785.03
2022-12-18T02:50:10.877Z,102783.22
2022-12-18T02:52:25.723Z,102771.56
2022-12-18T02:54:56.363Z,102783.66
2022-12-18T02:57:05.380Z,102783.41
2022-12-18T02:59:14.291Z,102788.56
2022-12-18T03:01:20.702Z,102795.47
2022-12-18T03:03:27.971Z,102793.00
2022-12-18T03:05:34.331Z,102786.78
2022-12-18T03:07:39.890Z,102782.66
2022-12-18T03:09:47.282Z,102787.88
2022-12-18T03:11:55.573Z,102788.56
2022-12-18T03:13:59.409Z,102782.16
2022-12-18T03:16:04.311Z,102797.09
2022-12-18T03:18:11.715Z,102794.75
2022-12-18T03:20:20.930Z,102788.97
2022-12-18T03:22:24.831Z,102801.50
2022-12-18T03:24:28.814Z,102798.56
2022-12-18T03:26:31.018Z,102793.72
2022-12-18T03:28:37.830Z,102785.53
2022-12-18T03:30:42.580Z,102802.06
2022-12-18T03:32:51.488Z,102811.31
2022-12-18T03:34:56.822Z,102803.22
2022-12-18T03:37:03.668Z,102802.81
2022-12-18T03:39:05.377Z,102808.25
2022-12-18T03:41:15.684Z,102798.91
2022-12-18T03:43:26.488Z,102799.84
2022-12-18T03:45:35.197Z,102794.41
2022-12-18T03:47:48.738Z,102791.00
2022-12-18T03:49:58.871Z,102793.09
2022-12-18T03:52:05.611Z,102795.91
2022-12-18T03:54:09.594Z,102799.13
2022-12-18T03:56:14.392Z,102793.63
2022-12-18T03:58:20.245Z,102789.66
2022-12-18T04:00:21.976Z,102795.84
2022-12-18T04:02:25.408Z,102789.81
2022-12-18T04:04:29.348Z,102795.25
2022-12-18T04:06:32.950Z,102791.50
2022-12-18T04:08:35.420Z,102805.19
2022-12-18T04:10:37.395Z,102810.88
2022-12-18T04:12:39.114Z,102809.56
2022-12-18T04:14:40.874Z,102816.06
2022-12-18T04:16:42.373Z,102813.03
2022-12-18T04:18:43.896Z,102810.28
2022-12-18T04:20:45.498Z,102800.84
2022-12-18T04:22:49.081Z,102807.28
2022-12-18T04:24:50.616Z,102812.53
2022-12-18T04:26:52.221Z,102823.41
2022-12-18T04:28:53.877Z,102828.78
2022-12-18T04:30:55.502Z,102818.72
2022-12-18T04:32:57.203Z,102824.00
2022-12-18T04:34:58.725Z,102823.88
2022-12-18T04:37:00.300Z,102821.16
2022-12-18T04:39:03.407Z,102820.56
2022-12-18T04:41:05.144Z,102827.03
2022-12-18T04:43:06.749Z,102826.97
2022-12-18T04:45:09.333Z,102818.31
2022-12-18T04:47:10.884Z,102831.03
2022-12-18T04:49:12.415Z,102830.94
2022-12-18T04:51:14.258Z,102831.34
2022-12-18T04:53:15.561Z,102831.88
2022-12-18T04:55:18.582Z,102831.75
2022-12-18T04:57:20.101Z,102827.22
2022-12-18T04:59:21.690Z,102835.72
2022-12-18T05:01:23.343Z,102826.50
2022-12-18T05:03:25.087Z,102829.44
2022-12-18T05:05:26.812Z,102837.25
2022-12-18T05:07:28.387Z,102821.16
2022-12-18T05:09:30.514Z,102821.50
2022-12-18T05:11:33.555Z,102823.03
2022-12-18T05:13:36.460Z,102836.50
2022-12-18T05:15:38.272Z,102840.44
2022-12-18T05:17:39.841Z,102853.94
2022-12-18T05:19:41.525Z,102851.94
2022-12-18T05:21:43.092Z,102847.44
2022-12-18T05:23:44.934Z,102831.56
2022-12-18T05:25:48.756Z,102849.94
2022-12-18T05:27:51.799Z,102854.75
2022-12-18T05:29:53.332Z,102858.81
2022-12-18T05:31:54.926Z,102859.84
2022-12-18T05:33:56.527Z,102855.94
2022-12-18T05:35:59.923Z,102868.59
2022-12-18T05:38:01.556Z,102872.16
2022-12-18T05:40:03.534Z,102878.53
2022-12-18T05:42:05.124Z,102872.97
2022-12-18T05:44:08.013Z,102869.38
2022-12-18T05:46:13.784Z,102872.28
2022-12-18T05:48:15.586Z,102873.81
2022-12-18T05:50:22.998Z,102871.28
2022-12-18T05:52:24.816Z,102859.56
2022-12-18T05:54:27.820Z,102877.38
2022-12-18T05:56:29.455Z,102879.72
2022-12-18T05:58:31.925Z,102875.78
2022-12-18T06:00:36.943Z,102880.88
2022-12-18T06:02:38.602Z,102840.91
2022-12-18T06:04:40.165Z,102880.91
2022-12-18T06:06:41.740Z,102880.13
2022-12-18T06:08:46.380Z,102887.94
2022-12-18T06:10:51.812Z,102893.88
2022-12-18T06:12:53.333Z,102889.88
2022-12-18T06:14:54.868Z,102889.41
2022-12-18T06:16:57.775Z,102892.47
2022-12-18T06:19:00.271Z,102882.88
2022-12-18T06:21:02.123Z,102907.59
2022-12-18T06:23:04.385Z,102912.09
2022-12-18T06:25:07.090Z,102914.19
2022-12-18T06:27:09.526Z,102909.53
2022-12-18T06:29:11.071Z,102909.16
2022-12-18T06:31:12.869Z,102904.00
2022-12-18T06:33:15.872Z,102898.00
2022-12-18T06:35:17.780Z,102904.47
2022-12-18T06:37:19.948Z,102903.31
2022-12-18T06:39:21.527Z,102914.25
2022-12-18T06:41:23.088Z,102907.69
2022-12-18T06:43:24.774Z,102922.59
2022-12-18T06:45:26.523Z,102919.34
2022-12-18T06:47:31.794Z,102923.66
2022-12-18T06:49:34.728Z,102925.38
2022-12-18T06:51:36.735Z,102926.44
2022-12-18T06:53:38.734Z,102933.31
2022-12-18T06:55:40.535Z,102932.66
2022-12-18T06:57:43.114Z,102947.41
2022-12-18T06:59:44.638Z,102955.88
2022-12-18T07:01:46.329Z,102940.00
2022-12-18T07:03:52.028Z,102952.19
2022-12-18T07:05:54.991Z,102948.38
2022-12-18T07:07:56.650Z,102953.56
2022-12-18T07:09:58.143Z,102942.09
2022-12-18T07:11:59.837Z,102937.34
2022-12-18T07:14:01.375Z,102932.47
2022-12-18T07:16:17.117Z,102931.09
2022-12-18T07:18:20.267Z,102934.66
2022-12-18T07:20:21.767Z,102947.47
2022-12-18T07:22:26.071Z,102940.94
2022-12-18T07:24:27.706Z,102945.34
2022-12-18T07:26:29.227Z,102934.56
2022-12-18T07:28:30.889Z,102947.66
2022-12-18T07:30:32.487Z,102950.94
2022-12-18T07:32:33.950Z,102932.31
2022-12-18T07:34:35.713Z,102931.97
2022-12-18T07:36:37.540Z,102938.94
2022-12-18T07:38:40.781Z,102945.03
2022-12-18T07:40:42.274Z,102949.31
2022-12-18T07:42:43.863Z,102935.44
2022-12-18T07:44:45.379Z,102940.16
2022-12-18T07:46:46.902Z,102934.88
2022-12-18T07:48:49.273Z,102942.84
2022-12-18T07:50:51.774Z,102938.63
2022-12-18T07:52:53.293Z,102947.56
2022-12-18T07:54:56.175Z,102937.75
2022-12-18T07:56:57.676Z,102937.28
2022-12-18T07:59:00.110Z,102927.41
2022-12-18T08:01:06.236Z,102921.31
2022-12-18T08:03:07.929Z,102932.03
2022-12-18T08:05:09.921Z,102941.63
2022-12-18T08:07:11.425Z,102940.50
2022-12-18T08:09:13.068Z,102952.25
2022-12-18T08:11:15.960Z,102952.25
2022-12-18T08:13:17.783Z,102954.69
2022-12-18T08:15:19.119Z,102950.47
2022-12-18T08:17:21.067Z,102953.19
2022-12-18T08:19:22.667Z,102957.38
2022-12-18T08:21:26.407Z,102956.47
2022-12-18T08:23:39.299Z,102953.56
2022-12-18T08:25:43.858Z,102957.13
2022-12-18T08:27:46.737Z,102968.09
2022-12-18T08:29:48.239Z,102959.16
2022-12-18T08:31:49.875Z,102962.00
2022-12-18T08:33:52.576Z,102958.41
2022-12-18T08:35:54.107Z,102963.09
2022-12-18T08:37:55.657Z,102963.63
2022-12-18T08:39:57.301Z,102959.63
2022-12-18T08:41:58.969Z,102967.13
2022-12-18T08:44:02.181Z,102964.63
2022-12-18T08:46:03.900Z,102974.94
2022-12-18T08:48:05.974Z,102980.16
2022-12-18T08:50:08.083Z,102978.16
2022-12-18T08:52:09.626Z,102953.34
2022-12-18T08:54:12.921Z,102978.75
2022-12-18T08:56:15.433Z,102998.72
2022-12-18T08:58:17.005Z,102985.34
2022-12-18T09:00:20.165Z,103003.34
2022-12-18T09:02:21.912Z,102998.50
2022-12-18T09:04:23.521Z,103003.56
2022-12-18T09:06:25.152Z,103002.41
2022-12-18T09:08:26.687Z,103004.16
2022-12-18T09:10:28.434Z,102999.19
2022-12-18T09:12:30.224Z,103008.59
2022-12-18T09:14:32.045Z,102998.00
2022-12-18T09:16:35.413Z,103008.16
2022-12-18T09:18:37.304Z,103007.47
2022-12-18T09:20:39.759Z,102992.91
2022-12-18T09:22:41.640Z,103002.25
2022-12-18T09:24:43.201Z,103015.41
2022-12-18T09:26:47.411Z,102996.38
2022-12-18T09:28:49.410Z,102966.38
2022-12-18T09:30:50.893Z,102997.03
2022-12-18T09:32:54.317Z,103003.53
2022-12-18T09:34:55.929Z,103014.78
2022-12-18T09:36:57.790Z,103017.69
2022-12-18T09:39:01.665Z,103000.50
2022-12-18T09:41:26.770Z,102979.63
2022-12-18T09:43:34.210Z,102985.72
2022-12-18T09:45:41.776Z,102956.22
2022-12-18T09:47:53.451Z,102971.25
2022-12-18T09:50:02.026Z,102976.66
2022-12-18T09:52:09.594Z,102977.88
2022-12-18T09:54:18.555Z,102983.00
2022-12-18T09:56:22.268Z,102966.91
2022-12-18T09:58:30.488Z,102952.13
2022-12-18T10:00:32.100Z,102970.75
2022-12-18T10:02:33.827Z,102956.25
2022-12-18T10:04:35.645Z,102951.72
2022-12-18T10:06:45.702Z,102939.41
2022-12-18T10:08:55.282Z,102944.63
2022-12-18T10:11:02.137Z,102938.28
2022-12-18T10:13:12.973Z,102934.00
2022-12-18T10:15:21.345Z,102942.16
2022-12-18T10:17:36.403Z,102943.13
2022-12-18T10:19:42.102Z,102939.66
2022-12-18T10:21:52.278Z,102937.03
2022-12-18T10:24:05.017Z,102935.06
2022-12-18T10:26:08.185Z,102933.63
2022-12-18T10:28:13.645Z,102938.06
2022-12-18T10:30:23.465Z,102924.59
2022-12-18T10:32:27.240Z,102926.38
2022-12-18T10:34:28.817Z,102928.72
2022-12-18T10:36:31.850Z,102930.56
2022-12-18T10:38:35.504Z,102929.66
2022-12-18T10:40:51.280Z,102916.75
2022-12-18T10:43:05.347Z,102918.13
2022-12-18T10:45:15.237Z,102911.69
2022-12-18T10:47:20.003Z,102925.63
2022-12-18T10:49:27.532Z,102920.41
2022-12-18T10:51:33.750Z,102908.47
2022-12-18T10:53:37.932Z,102904.03
2022-12-18T10:55:45.354Z,102904.88
2022-12-18T10:57:46.925Z,102891.81
2022-12-18T10:59:53.386Z,102869.47
2022-12-18T11:01:56.822Z,102895.13
2022-12-18T11:04:08.523Z,102890.25
2022-12-18T11:06:12.857Z,102890.59
2022-12-18T11:08:22.215Z,102890.25
2022-12-18T11:10:30.830Z,102899.59
2022-12-18T11:12:32.375Z,102900.28
2022-12-18T11:14:46.724Z,102894.56
2022-12-18T11:17:24.200Z,102899.34
2022-12-18T11:19:22.373Z,102876.31
2022-12-18T11:21:24.474Z,102892.41
2022-12-18T11:23:27.441Z,102890.94
2022-12-18T11:25:34.654Z,102883.78
2022-12-18T11:27:38.649Z,102894.66
2022-12-18T11:29:46.417Z,102892.97
2022-12-18T11:31:48.349Z,102897.81
2022-12-18T11:34:26.822Z,102904.03
2022-12-18T11:36:16.566Z,102900.78
2022-12-18T11:38:23.402Z,102897.00
2022-12-18T11:40:31.041Z,102894.00
2022-12-18T11:42:39.383Z,102889.16
2022-12-18T11:44:49.150Z,102901.19
2022-12-18T11:46:56.108Z,102892.31
2022-12-18T11:49:02.295Z,102890.94
2022-12-18T11:51:10.389Z,102899.19
2022-12-18T11:53:12.863Z,102902.13
2022-12-18T11:55:16.475Z,102910.97
2022-12-18T11:57:32.907Z,102914.63
2022-12-18T11:59:44.711Z,102913.78
2022-12-18T12:01:52.585Z,102917.97
2022-12-18T12:04:22.159Z,102918.22
2022-12-18T12:06:32.363Z,102916.66
2022-12-18T12:08:50.091Z,102916.13
2022-12-18T12:11:03.140Z,102928.66
2022-12-18T12:13:39.413Z,102919.59
2022-12-18T12:15:55.067Z,102928.59
2022-12-18T12:18:11.065Z,102922.72
2022-12-18T12:20:21.219Z,102911.69
2022-12-18T12:22:32.407Z,102926.78
2022-12-18T12:24:46.014Z,102917.88
2022-12-18T12:26:56.647Z,102924.16
2022-12-18T12:29:09.205Z,102928.13
2022-12-18T12:31:26.920Z,102931.75
2022-12-18T12:33:38.570Z,102933.88
2022-12-18T12:35:48.564Z,102941.34
2022-12-18T12:38:02.456Z,102942.75
2022-12-18T12:40:26.836Z,102946.34
2022-12-18T12:42:33.726Z,102933.53
2022-12-18T12:44:44.155Z,102929.69
2022-12-18T12:46:49.521Z,102935.00
2022-12-18T12:48:54.685Z,102932.97
2022-12-18T12:50:57.826Z,102930.91
2022-12-18T12:53:01.706Z,102920.44
2022-12-18T12:55:13.082Z,102911.28
2022-12-18T12:57:20.512Z,102907.84
2022-12-18T12:59:32.907Z,102908.25
2022-12-18T13:01:42.629Z,102882.34
2022-12-18T13:04:02.362Z,102895.31
2022-12-18T13:06:12.346Z,102883.13
2022-12-18T13:08:24.444Z,102885.59
2022-12-18T13:10:33.498Z,102886.44
2022-12-18T13:12:35.413Z,102887.47
2022-12-18T13:14:39.355Z,102889.75
2022-12-18T13:16:41.028Z,102897.97
2022-12-18T13:18:52.454Z,102893.84
2022-12-18T13:21:20.330Z,102899.50
2022-12-18T13:23:31.821Z,102889.59
2022-12-18T13:25:36.370Z,102866.09
2022-12-18T13:28:05.014Z,102896.72
2022-12-18T13:30:57.751Z,102891.44
2022-12-18T13:34:02.101Z,102885.78
2022-12-18T13:36:14.914Z,102879.97
2022-12-18T13:38:22.827Z,102870.50
2022-12-18T13:40:56.620Z,102878.34
2022-12-18T13:42:59.044Z,102884.44
2022-12-18T13:45:01.137Z,102884.03
2022-12-18T13:47:04.336Z,102889.25
2022-12-18T13:49:18.310Z,102884.50
2022-12-18T13:51:22.429Z,102886.97
2022-12-18T13:53:27.251Z,102873.97
2022-12-18T13:55:29.580Z,102878.06
2022-12-18T13:57:34.016Z,102874.84
2022-12-18T13:59:36.850Z,102878.63
2022-12-18T14:01:43.468Z,102874.28
2022-12-18T14:03:45.090Z,102873.38
2022-12-18T14:05:55.935Z,102861.81
2022-12-18T14:08:02.644Z,102865.13
2022-12-18T14:10:42.199Z,102861.31
2022-12-18T14:12:28.740Z,102862.81
2022-12-18T14:14:33.566Z,102872.00
2022-12-18T14:16:35.967Z,102862.09
2022-12-18T14:18:45.242Z,102858.00
2022-12-18T14:20:52.827Z,102866.53
2022-12-18T14:22:55.422Z,102857.03
2022-12-18T14:25:19.113Z,102841.50
2022-12-18T14:27:24.250Z,102840.38
2022-12-18T14:29:27.715Z,102831.50
2022-12-18T14:31:31.979Z,102828.56
2022-12-18T14:33:33.722Z,102826.25
2022-12-18T14:35:37.209Z,102818.72
2022-12-18T14:37:39.986Z,102815.38
2022-12-18T14:39:41.678Z,102811.31
2022-12-18T14:41:44.574Z,102807.16
2022-12-18T14:43:47.688Z,102809.97
2022-12-18T14:45:49.726Z,102807.16
2022-12-18T14:47:51.424Z,102800.97
2022-12-18T14:49:53.045Z,102801.13
2022-12-18T14:51:56.058Z,102783.06
2022-12-18T14:54:00.264Z,102809.66
2022-12-18T14:56:11.183Z,102804.22
2022-12-18T14:58:16.262Z,102820.34
2022-12-18T15:00:20.915Z,102810.28
2022-12-18T15:02:25.017Z,102814.75
2022-12-18T15:04:29.344Z,102829.03
2022-12-18T15:06:33.865Z,102827.69
2022-12-18T15:08:37.686Z,102833.75
2022-12-18T15:10:48.453Z,102841.63
2022-12-18T15:12:51.246Z,102829.53
2022-12-18T15:14:54.282Z,102841.25
2022-12-18T15:16:57.287Z,102846.84
2022-12-18T15:18:58.870Z,102839.53
2022-12-18T15:21:09.294Z,102826.50
2022-12-18T15:23:15.782Z,102833.19
2022-12-18T15:25:30.274Z,102831.56
2022-12-18T15:27:33.764Z,102822.38
2022-12-18T15:29:35.341Z,102829.63
2022-12-18T15:31:38.230Z,102835.47
2022-12-18T15:33:41.956Z,102833.28
2022-12-18T15:35:47.181Z,102836.19
2022-12-18T15:37:49.597Z,102835.44
2022-12-18T15:39:51.067Z,102844.78
2022-12-18T15:41:52.888Z,102856.59
2022-12-18T15:43:54.624Z,102852.06
2022-12-18T15:45:56.251Z,102849.78
2022-12-18T15:47:59.608Z,102831.59
2022-12-18T15:50:01.255Z,102848.13
2022-12-18T15:52:03.362Z,102842.63
2022-12-18T15:54:09.880Z,102841.19
2022-12-18T15:56:12.159Z,102841.84
2022-12-18T15:58:14.480Z,102842.72
2022-12-18T16:00:18.335Z,102832.09
2022-12-18T16:02:21.012Z,102833.63
2022-12-18T16:04:24.035Z,102839.38
2022-12-18T16:06:25.606Z,102823.00
2022-12-18T16:08:27.166Z,102821.91
2022-12-18T16:10:29.251Z,102785.72
2022-12-18T16:12:31.003Z,102788.31
2022-12-18T16:14:33.401Z,102812.16
2022-12-18T16:16:35.157Z,102811.25
2022-12-18T16:18:36.723Z,102817.91
2022-12-18T16:20:40.176Z,102814.91
2022-12-18T16:22:42.593Z,102818.81
2022-12-18T16:24:44.254Z,102814.00
2022-12-18T16:26:46.243Z,102812.69
2022-12-18T16:28:48.653Z,102819.22
2022-12-18T16:30:50.323Z,102811.63
2022-12-18T16:32:51.999Z,102809.34
2022-12-18T16:34:53.566Z,102808.66
2022-12-18T16:37:03.339Z,102797.41
2022-12-18T16:39:07.027Z,102806.19
2022-12-18T16:41:18.890Z,102789.38
2022-12-18T16:43:20.509Z,102776.91
2022-12-18T16:45:23.420Z,102775.19
2022-12-18T16:47:24.981Z,102782.78
2022-12-18T16:49:26.526Z,102786.47
2022-12-18T16:51:28.655Z,102790.94
2022-12-18T16:53:32.722Z,102782.41
2022-12-18T16:55:34.846Z,102789.75
2022-12-18T16:57:36.483Z,102792.63
2022-12-18T16:59:38.060Z,102787.66
2022-12-18T17:01:39.963Z,102790.59
2022-12-18T17:03:41.921Z,102788.38
2022-12-18T17:05:51.507Z,102793.50
2022-12-18T17:07:54.641Z,102795.31
2022-12-18T17:09:57.607Z,102787.50
2022-12-18T17:12:02.339Z,102796.47
2022-12-18T17:14:07.065Z,102790.03
2022-12-18T17:16:09.764Z,102792.56
2022-12-18T17:18:11.479Z,102792.81
2022-12-18T17:20:13.166Z,102791.16
2022-12-18T17:22:14.751Z,102785.81
2022-12-18T17:24:16.655Z,102799.94
2022-12-18T17:26:20.524Z,102789.47
2022-12-18T17:28:22.104Z,102799.66
2022-12-18T17:30:23.643Z,102787.94
2022-12-18T17:32:25.191Z,102787.25
2022-12-18T17:34:26.810Z,102796.97
2022-12-18T17:36:28.376Z,102792.19
2022-12-18T17:38:30.178Z,102800.69
2022-12-18T17:40:33.388Z,102792.50
2022-12-18T17:42:36.659Z,102797.81
2022-12-18T17:44:38.274Z,102778.75
2022-12-18T17:46:39.917Z,102788.19
2022-12-18T17:48:41.699Z,102781.03
2022-12-18T17:50:43.340Z,102780.44
2022-12-18T17:52:44.895Z,102779.63
2022-12-18T17:54:46.529Z,102776.28
2022-12-18T17:56:48.922Z,102774.31
2022-12-18T17:58:51.995Z,102770.50
2022-12-18T18:00:53.855Z,102772.13
2022-12-18T18:02:55.399Z,102769.31
2022-12-18T18:04:57.115Z,102758.31
2022-12-18T18:06:58.729Z,102745.72
2022-12-18T18:09:00.327Z,102758.50
2022-12-18T18:11:05.050Z,102759.00
2022-12-18T18:13:17.447Z,102753.31
2022-12-18T18:15:20.411Z,102748.31
2022-12-18T18:17:21.969Z,102742.63
2022-12-18T18:19:24.870Z,102735.78
2022-12-18T18:21:26.950Z,102743.34
2022-12-18T18:23:28.897Z,102732.56
2022-12-18T18:25:30.579Z,102726.41
2022-12-18T18:27:38.248Z,102729.22
2022-12-18T18:29:40.311Z,102719.88
2022-12-18T18:31:43.277Z,102711.94
2022-12-18T18:33:45.039Z,102723.78
2022-12-18T18:35:54.763Z,102721.69
2022-12-18T18:37:56.512Z,102705.28
2022-12-18T18:39:58.326Z,102705.28
2022-12-18T18:41:59.932Z,102696.19
2022-12-18T18:44:01.713Z,102700.94
2022-12-18T18:46:05.285Z,102705.69
2022-12-18T18:48:08.298Z,102707.88
2022-12-18T18:50:10.212Z,102700.88
2022-12-18T18:52:11.547Z,102694.63
2022-12-18T18:54:13.066Z,102687.72
2022-12-18T18:56:45.336Z,102695.88
2022-12-18T18:58:38.404Z,102676.50
2022-12-18T19:00:39.822Z,102670.09
2022-12-18T19:02:41.729Z,102667.75
2022-12-18T19:04:46.279Z,102665.00
2022-12-18T19:06:48.568Z,102670.25
2022-12-18T19:08:51.140Z,102666.94
2022-12-18T19:10:57.678Z,102673.50
2022-12-18T19:12:59.626Z,102662.78
2022-12-18T19:15:01.356Z,102671.56
2022-12-18T19:17:03.382Z,102667.88
2022-12-18T19:19:06.232Z,102667.66
2022-12-18T19:21:10.755Z,102659.13
2022-12-18T19:23:12.300Z,102647.16
2022-12-18T19:25:13.908Z,102664.75
2022-12-18T19:27:15.454Z,102662.56
2022-12-18T19:29:17.080Z,102671.50
2022-12-18T19:31:24.443Z,102650.19
2022-12-18T19:33:43.254Z,102649.16
2022-12-18T19:35:45.391Z,102652.19
2022-12-18T19:37:48.464Z,102655.63
2022-12-18T19:39:50.279Z,102664.19
2022-12-18T19:41:51.913Z,102647.00
2022-12-18T19:43:53.880Z,102638.31
2022-12-18T19:45:56.220Z,102640.97
2022-12-18T19:48:02.624Z,102637.44
2022-12-18T19:50:07.404Z,102647.97
2022-12-18T19:52:09.420Z,102648.59
2022-12-18T19:54:16.655Z,102642.59
2022-12-18T19:56:21.611Z,102642.09
2022-12-18T19:58:23.124Z,102641.94
2022-12-18T20:00:26.357Z,102632.19
2022-12-18T20:02:28.193Z,102631.34
2022-12-18T20:04:30.070Z,102641.09
2022-12-18T20:06:34.398Z,102644.63
2022-12-18T20:08:36.000Z,102650.47
2022-12-18T20:10:39.079Z,102645.69
2022-12-18T20:12:40.693Z,102642.53
2022-12-18T20:14:42.199Z,102642.56
2022-12-18T20:16:44.469Z,102631.28
2022-12-18T20:18:46.707Z,102636.28
2022-12-18T20:20:48.655Z,102631.91
2022-12-18T20:22:52.296Z,102628.47
2022-12-18T20:24:53.950Z,102629.63
2022-12-18T20:26:57.304Z,102614.69
2022-12-18T20:28:59.767Z,102608.16
2022-12-18T20:31:01.583Z,102608.03
2022-12-18T20:33:03.548Z,102612.44
2022-12-18T20:35:05.279Z,102614.53
2022-12-18T20:37:07.140Z,102609.47
2022-12-18T20:39:08.858Z,102604.63
2022-12-18T20:41:15.856Z,102591.72
2022-12-18T20:43:18.995Z,102592.28
2022-12-18T20:45:20.648Z,102600.44
2022-12-18T20:47:22.171Z,102600.22
2022-12-18T20:49:25.589Z,102597.94
2022-12-18T20:51:27.323Z,102605.63
2022-12-18T20:53:29.037Z,102608.03
2022-12-18T20:55:30.871Z,102612.00
2022-12-18T20:57:32.586Z,102604.59
2022-12-18T20:59:35.590Z,102600.44
2022-12-18T21:01:37.421Z,102599.56
2022-12-18T21:03:42.928Z,102593.56
2022-12-18T21:05:44.712Z,102587.31
2022-12-18T21:07:46.392Z,102574.81
2022-12-18T21:09:47.972Z,102576.19
2022-12-18T21:11:49.824Z,102588.16
2022-12-18T21:13:51.520Z,102591.59
2022-12-18T21:15:54.802Z,102566.75
2022-12-18T21:17:56.476Z,102570.03
2022-12-18T21:19:58.224Z,102564.03
2022-12-18T21:21:59.889Z,102567.34
2022-12-18T21:24:01.730Z,102556.56
2022-12-18T21:26:15.966Z,102564.41
2022-12-18T21:28:17.556Z,102556.19
2022-12-18T21:30:19.130Z,102560.56
2022-12-18T21:32:22.421Z,102551.09
2022-12-18T21:34:28.793Z,102569.16
2022-12-18T21:36:31.502Z,102580.56
2022-12-18T21:38:33.477Z,102574.75
2022-12-18T21:40:34.912Z,102576.09
2022-12-18T21:42:38.219Z,102573.69
2022-12-18T21:44:41.980Z,102574.81
2022-12-18T21:46:48.987Z,102582.22
2022-12-18T21:48:56.142Z,102579.53
2022-12-18T21:50:57.809Z,102572.97
2022-12-18T21:52:59.648Z,102574.13
2022-12-18T21:55:07.946Z,102582.22
2022-12-18T21:57:10.775Z,102577.13
2022-12-18T21:59:13.009Z,102588.38
2022-12-18T22:01:15.156Z,102589.34
2022-12-18T22:03:19.245Z,102580.56
2022-12-18T22:05:22.417Z,102566.63
2022-12-18T22:07:23.925Z,102570.75
2022-12-18T22:09:27.485Z,102567.22
2022-12-18T22:11:29.156Z,102557.09
2022-12-18T22:13:30.793Z,102574.59
2022-12-18T22:15:32.868Z,102561.34
2022-12-18T22:17:34.589Z,102549.97
2022-12-18T22:19:42.511Z,102548.66
2022-12-18T22:21:47.541Z,102545.72
2022-12-18T22:23:52.679Z,102530.34
2022-12-18T22:25:54.456Z,102523.50
2022-12-18T22:27:56.068Z,102520.16
2022-12-18T22:29:57.638Z,102520.38
2022-12-18T22:31:59.310Z,102528.91
2022-12-18T22:34:01.023Z,102537.56
2022-12-18T22:36:05.601Z,102520.25
2022-12-18T22:38:09.190Z,102522.63
2022-12-18T22:40:23.721Z,102502.84
2022-12-18T22:42:25.695Z,102516.25
2022-12-18T22:44:27.263Z,102507.91
2022-12-18T22:46:32.663Z,102503.31
2022-12-18T22:48:34.233Z,102499.47
2022-12-18T22:50:35.795Z,102479.75
2022-12-18T22:52:37.385Z,102482.38
2022-12-18T22:54:40.302Z,102478.22
2022-12-18T22:56:42.594Z,102479.06
2022-12-18T22:58:46.998Z,102479.78
2022-12-18T23:00:48.533Z,102474.31
2022-12-18T23:02:54.436Z,102470.13
2022-12-18T23:04:59.362Z,102477.75
2022-12-18T23:07:00.925Z,102463.16
2022-12-18T23:09:02.431Z,102450.50
2022-12-18T23:11:05.748Z,102451.75
2022-12-18T23:13:07.413Z,102450.59
2022-12-18T23:15:09.660Z,102448.84
2022-12-18T23:17:11.274Z,102451.06
2022-12-18T23:19:12.824Z,102442.44
2022-12-18T23:21:17.550Z,102405.41
2022-12-18T23:23:20.142Z,102433.88
2022-12-18T23:25:21.882Z,102422.63
2022-12-18T23:27:24.845Z,102431.19
2022-12-18T23:29:26.712Z,102418.75
2022-12-18T23:31:30.294Z,102406.97
2022-12-18T23:33:31.947Z,102419.59
2022-12-18T23:35:34.437Z,102420.91
2022-12-18T23:37:58.693Z,102413.47
2022-12-18T23:39:57.505Z,102419.13
2022-12-18T23:41:59.089Z,102423.81